Time;durP1;ratioP1;P1;durP2;ratioP2;P2;SDS_P1;SDS_P2;PMS_P1;PMS_P2;Temp;Humidity;BMP_temperature;BMP_pressure;BME280_temperature;BME280_humidity;BME280_pressure;Samples;Min_cycle;Max_cycle;Signal;HPM_P1;HPM_P2
2022/05/31 00:02:22;;;;;;;;;;;;;;;14.57;100.00;98774.72;5027652;28;20396;-52
2022/05/31 00:04:47;;;;;;;;;;;;;;;14.79;100.00;98764.06;5029082;28;20116;-50
2022/05/31 00:07:13;;;;;;;;;;;;;;;14.10;100.00;98771.03;5010674;28;20455;-51
2022/05/31 00:09:38;;;;;;;;;;;;;;;14.48;100.00;98770.81;5028243;28;19948;-52
2022/05/31 00:12:04;;;;;;;;;;;;;;;15.14;100.00;98763.91;5029230;28;19986;-51
2022/05/31 00:14:29;;;;;;;;;;;;;;;15.40;100.00;98758.16;5028769;28;19921;-51
2022/05/31 00:16:54;;;;;;;;;;;;;;;15.92;100.00;98756.13;5029034;28;19976;-53
2022/05/31 00:19:19;;;;;;;;;;;;;;;16.18;100.00;98750.25;5030158;28;19917;-52
2022/05/31 00:21:46;;;;;;;;;;;;;;;16.23;99.34;98744.78;5019572;28;20347;-53
2022/05/31 00:24:17;;;;;;;;;;;;;;;16.14;97.36;98751.34;5030302;28;19928;-53
2022/05/31 00:26:42;;;;;;;;;;;;;;;16.11;98.76;98743.75;5031171;28;19921;-52
2022/05/31 00:29:08;;;;;;;;;;;;;;;15.57;99.70;98751.16;5028294;28;20370;-52
2022/05/31 00:31:33;;;;;;;;;;;;;;;14.52;100.00;98756.78;5033161;28;20097;-53
2022/05/31 00:33:58;;;;;;;;;;;;;;;15.51;100.00;98746.31;5009584;28;19921;-52
2022/05/31 00:36:24;;;;;;;;;;;;;;;15.14;100.00;98738.00;5010608;28;19930;-51
2022/05/31 00:38:49;;;;;;;;;;;;;;;15.83;100.00;98737.59;5031672;28;19919;-51
2022/05/31 00:41:24;;;;;;;;;;;;;;;15.13;100.00;98742.34;5028137;28;20027;-52
2022/05/31 00:43:57;;;;;;;;;;;;;;;15.89;100.00;98737.19;5010389;28;20330;-52
2022/05/31 00:46:22;;;;;;;;;;;;;;;14.13;100.00;98750.16;5026762;28;20001;-51
2022/05/31 00:48:55;;;;;;;;;;;;;;;14.89;100.00;98741.06;5028364;28;19921;-50
2022/05/31 00:51:21;;;;;;;;;;;;;;;14.97;100.00;98747.53;5011116;28;20378;-51
2022/05/31 00:53:52;;;;;;;;;;;;;;;14.61;100.00;98739.97;5028043;28;19975;-49
2022/05/31 00:56:19;;;;;;;;;;;;;;;15.18;100.00;98735.13;5031519;28;19921;-54
2022/05/31 00:58:47;;;;;;;;;;;;;;;15.29;100.00;98731.97;5027275;28;19920;-50
2022/05/31 01:01:13;;;;;;;;;;;;;;;14.70;100.00;98736.03;5027518;28;19950;-53
2022/05/31 01:03:39;;;;;;;;;;;;;;;14.14;100.00;98741.47;5027782;28;19959;-53
2022/05/31 01:06:04;;;;;;;;;;;;;;;14.39;100.00;98742.78;5011913;28;20024;-54
2022/05/31 01:08:29;;;;;;;;;;;;;;;14.13;100.00;98749.31;5028106;28;19967;-53
2022/05/31 01:10:55;;;;;;;;;;;;;;;13.78;100.00;98750.16;5026512;28;19925;-52
2022/05/31 01:13:20;;;;;;;;;;;;;;;13.84;100.00;98753.34;5029688;28;19921;-54
2022/05/31 01:15:46;;;;;;;;;;;;;;;13.46;100.00;98751.72;5026520;28;20023;-52
2022/05/31 01:18:11;;;;;;;;;;;;;;;13.28;100.00;98747.44;5005985;28;19956;-53
2022/05/31 01:20:36;;;;;;;;;;;;;;;13.50;100.00;98742.91;5029300;28;19925;-53
2022/05/31 01:23:07;;;;;;;;;;;;;;;13.99;100.00;98734.47;5025277;28;19927;-52
2022/05/31 01:25:35;;;;;;;;;;;;;;;13.67;100.00;98742.09;5009973;28;20016;-51
2022/05/31 01:28:10;;;;;;;;;;;;;;;13.23;100.00;98737.25;5027115;28;20341;-52
2022/05/31 01:30:41;;;;;;;;;;;;;;;13.23;100.00;98737.25;5029544;28;20043;-51
2022/05/31 01:33:06;;;;;;;;;;;;;;;12.96;100.00;98747.97;5027216;28;19924;-54
2022/05/31 01:35:32;;;;;;;;;;;;;;;13.55;100.00;98740.09;5022665;28;20034;-51
2022/05/31 01:38:00;;;;;;;;;;;;;;;13.75;100.00;98739.97;5027088;28;19925;-52
2022/05/31 01:40:37;;;;;;;;;;;;;;;14.11;100.00;98738.19;5026035;28;20294;-51
2022/05/31 01:43:02;;;;;;;;;;;;;;;13.51;100.00;98735.97;5010482;28;20416;-54
2022/05/31 01:45:33;;;;;;;;;;;;;;;13.87;100.00;98732.50;5027805;28;19996;-53
2022/05/31 01:47:58;;;;;;;;;;;;;;;13.39;100.00;98734.81;5023374;28;19921;-52
2022/05/31 01:50:24;;;;;;;;;;;;;;;13.65;100.00;98732.72;5008045;28;20885;-52
2022/05/31 01:52:49;;;;;;;;;;;;;;;12.94;100.00;98725.69;5025312;28;19920;-51
2022/05/31 01:55:14;;;;;;;;;;;;;;;14.02;100.00;98719.59;5024462;28;20834;-49
2022/05/31 01:57:40;;;;;;;;;;;;;;;13.31;100.00;98729.16;5008712;28;19968;-49
2022/05/31 02:00:09;;;;;;;;;;;;;;;13.51;100.00;98730.81;5026573;28;19979;-53
2022/05/31 02:02:34;;;;;;;;;;;;;;;13.23;100.00;98726.91;5023894;28;19968;-53
2022/05/31 02:05:00;;;;;;;;;;;;;;;13.61;100.00;98721.66;5028215;28;19920;-53
2022/05/31 02:07:25;;;;;;;;;;;;;;;13.94;100.00;98728.69;5027470;28;19925;-51
2022/05/31 02:09:51;;;;;;;;;;;;;;;13.05;100.00;98732.97;5031329;28;19937;-53
2022/05/31 02:12:17;;;;;;;;;;;;;;;13.30;100.00;98728.34;5028068;28;19975;-52
2022/05/31 02:14:42;;;;;;;;;;;;;;;14.50;100.00;98716.31;5029541;28;19936;-53
2022/05/31 02:17:08;;;;;;;;;;;;;;;13.69;100.00;98729.91;5014991;28;20374;-53
2022/05/31 02:19:34;;;;;;;;;;;;;;;14.35;100.00;98708.44;5030330;28;19972;-52
2022/05/31 02:22:00;;;;;;;;;;;;;;;13.69;100.00;98722.16;5032236;28;19917;-54
2022/05/31 02:24:26;;;;;;;;;;;;;;;14.35;100.00;98705.03;5029819;28;19975;-54
2022/05/31 02:26:51;;;;;;;;;;;;;;;13.95;100.00;98713.06;5034941;28;19924;-52
2022/05/31 02:29:21;;;;;;;;;;;;;;;14.18;100.00;98711.06;5032371;28;19921;-54
2022/05/31 02:31:46;;;;;;;;;;;;;;;14.28;100.00;98701.06;5030738;28;19929;-53
2022/05/31 02:34:13;;;;;;;;;;;;;;;13.68;100.00;98711.84;5031622;28;19944;-54
2022/05/31 02:36:38;;;;;;;;;;;;;;;13.11;100.00;98711.97;5032990;28;19921;-53
2022/05/31 02:39:04;;;;;;;;;;;;;;;13.72;100.00;98703.88;5031229;28;20607;-53
2022/05/31 02:41:29;;;;;;;;;;;;;;;13.77;100.00;98696.69;5032813;28;19920;-54
2022/05/31 02:43:55;;;;;;;;;;;;;;;13.56;100.00;98697.78;5031976;28;19952;-54
2022/05/31 02:46:20;;;;;;;;;;;;;;;13.26;100.00;98706.06;5028008;28;19921;-52
2022/05/31 02:48:46;;;;;;;;;;;;;;;13.65;100.00;98699.91;5028308;28;19925;-53
2022/05/31 02:51:11;;;;;;;;;;;;;;;13.99;100.00;98691.28;5028657;28;19979;-53
2022/05/31 02:53:37;;;;;;;;;;;;;;;13.18;100.00;98700.41;5029025;28;20384;-53
2022/05/31 02:56:02;;;;;;;;;;;;;;;12.92;100.00;98702.47;5015866;28;19975;-53
2022/05/31 02:58:28;;;;;;;;;;;;;;;13.29;100.00;98698.19;5030633;28;19937;-54
2022/05/31 03:00:53;;;;;;;;;;;;;;;13.49;100.00;98691.22;5032870;28;19974;-54
2022/05/31 03:03:18;;;;;;;;;;;;;;;12.73;100.00;98702.50;5017435;28;19927;-52
2022/05/31 03:05:44;;;;;;;;;;;;;;;12.54;100.00;98702.50;5027255;28;21108;-53
2022/05/31 03:08:09;;;;;;;;;;;;;;;12.90;100.00;98693.97;5015840;28;19927;-53
2022/05/31 03:10:36;;;;;;;;;;;;;;;13.29;100.00;98684.44;5026484;28;20049;-53
2022/05/31 03:13:01;;;;;;;;;;;;;;;13.23;100.00;98679.50;5027546;28;19924;-53
2022/05/31 03:15:26;;;;;;;;;;;;;;;13.32;100.00;98681.69;5009730;28;19967;-52
2022/05/31 03:17:56;;;;;;;;;;;;;;;13.01;100.00;98690.06;5008128;28;19921;-54
2022/05/31 03:20:57;;;;;;;;;;;;;;;13.57;100.00;98681.31;5025692;28;19921;-52
2022/05/31 03:23:27;;;;;;;;;;;;;;;13.22;100.00;98685.59;4977920;28;20036;-53
2022/05/31 03:25:52;;;;;;;;;;;;;;;12.93;100.00;98688.66;5018707;28;19979;-53
2022/05/31 03:28:17;;;;;;;;;;;;;;;13.75;100.00;98677.00;5024266;28;19931;-53
2022/05/31 03:30:42;;;;;;;;;;;;;;;13.84;100.00;98673.13;5012771;28;19925;-54
2022/05/31 03:33:09;;;;;;;;;;;;;;;13.61;100.00;98669.91;5010155;28;20285;-55
2022/05/31 03:35:34;;;;;;;;;;;;;;;13.63;100.00;98673.28;5028583;28;19991;-53
2022/05/31 03:38:00;;;;;;;;;;;;;;;13.11;100.00;98675.78;5026747;28;21494;-54
2022/05/31 03:43:09;;;;;;;;;;;;;;;13.92;100.00;98665.81;5031087;28;19944;-52
2022/05/31 03:45:35;;;;;;;;;;;;;;;13.73;100.00;98666.75;5030641;28;20014;-52
2022/05/31 03:48:00;;;;;;;;;;;;;;;13.97;100.00;98671.56;5012227;28;19925;-53
2022/05/31 03:50:26;;;;;;;;;;;;;;;13.78;100.00;98667.34;5026843;28;19935;-51
2022/05/31 03:52:51;;;;;;;;;;;;;;;13.80;100.00;98665.50;5027590;28;20508;-54
2022/05/31 03:55:16;;;;;;;;;;;;;;;13.90;100.00;98665.88;5026584;28;19968;-53
2022/05/31 03:57:41;;;;;;;;;;;;;;;14.47;100.00;98660.31;5028935;28;19960;-51
2022/05/31 04:00:08;;;;;;;;;;;;;;;14.67;100.00;98658.47;5031521;28;19921;-53
2022/05/31 04:02:33;;;;;;;;;;;;;;;14.90;100.00;98663.22;5029831;28;20618;-52
2022/05/31 04:04:59;;;;;;;;;;;;;;;15.24;100.00;98661.34;5030209;28;19921;-54
2022/05/31 04:07:24;;;;;;;;;;;;;;;14.15;100.00;98667.22;5026934;28;20019;-54
2022/05/31 04:09:49;;;;;;;;;;;;;;;14.40;100.00;98666.75;5010343;28;20020;-55
2022/05/31 04:12:14;;;;;;;;;;;;;;;14.11;100.00;98666.50;5011829;28;20421;-51
2022/05/31 04:14:40;;;;;;;;;;;;;;;14.49;100.00;98663.69;5029965;28;19924;-54
2022/05/31 04:17:05;;;;;;;;;;;;;;;14.22;100.00;98671.16;5032078;28;20004;-52
2022/05/31 04:19:31;;;;;;;;;;;;;;;14.93;100.00;98663.03;5030564;28;20049;-54
2022/05/31 04:21:57;;;;;;;;;;;;;;;14.63;100.00;98653.44;5033556;28;19925;-54
2022/05/31 04:24:23;;;;;;;;;;;;;;;14.76;100.00;98657.97;5031453;28;19929;-55
2022/05/31 04:26:48;;;;;;;;;;;;;;;14.20;100.00;98662.63;5032076;28;20281;-53
2022/05/31 04:29:13;;;;;;;;;;;;;;;15.64;99.18;98659.03;5031316;28;19967;-52
2022/05/31 04:31:38;;;;;;;;;;;;;;;15.92;97.15;98652.25;5032147;28;20369;-55
2022/05/31 04:34:04;;;;;;;;;;;;;;;16.40;95.43;98642.41;5029478;28;19953;-55
2022/05/31 04:36:30;;;;;;;;;;;;;;;16.08;95.79;98638.28;5029816;28;19959;-54
2022/05/31 04:38:55;;;;;;;;;;;;;;;15.66;98.05;98652.84;5030223;28;19964;-54
2022/05/31 04:41:21;;;;;;;;;;;;;;;16.10;97.75;98640.75;5028291;28;19960;-55
2022/05/31 04:43:47;;;;;;;;;;;;;;;15.93;96.60;98639.19;5027010;28;19968;-55
2022/05/31 04:46:13;;;;;;;;;;;;;;;16.50;94.85;98640.94;5027273;28;19999;-55
2022/05/31 04:48:38;;;;;;;;;;;;;;;16.63;95.67;98639.25;5029451;28;19920;-54
2022/05/31 04:51:04;;;;;;;;;;;;;;;16.46;95.48;98637.69;5026081;28;19928;-54
2022/05/31 04:53:29;;;;;;;;;;;;;;;15.80;97.06;98639.06;5010964;28;20164;-54
2022/05/31 04:56:04;;;;;;;;;;;;;;;15.56;98.71;98643.91;5033048;28;20785;-56
2022/05/31 04:58:30;;;;;;;;;;;;;;;15.48;100.00;98633.97;5010937;28;19924;-53
2022/05/31 05:00:55;;;;;;;;;;;;;;;15.55;98.05;98644.00;5032416;28;19921;-55
2022/05/31 05:03:20;;;;;;;;;;;;;;;16.45;96.16;98636.03;5030304;28;19972;-55
2022/05/31 05:05:45;;;;;;;;;;;;;;;16.95;92.44;98633.81;5029837;28;20617;-54
2022/05/31 05:08:11;;;;;;;;;;;;;;;16.45;91.29;98648.19;5031222;28;19917;-54
2022/05/31 05:10:36;;;;;;;;;;;;;;;16.57;92.71;98634.41;5030886;28;20229;-55
2022/05/31 05:13:02;;;;;;;;;;;;;;;16.93;90.89;98635.66;5028433;28;19917;-55
2022/05/31 05:15:27;;;;;;;;;;;;;;;15.54;94.50;98642.34;5030114;28;19924;-55
2022/05/31 05:17:52;;;;;;;;;;;;;;;16.45;98.08;98635.19;5033718;28;20405;-55
2022/05/31 05:20:17;;;;;;;;;;;;;;;15.21;99.24;98651.13;5031035;28;20299;-53
2022/05/31 05:22:43;;;;;;;;;;;;;;;15.64;96.99;98640.88;5033106;28;19922;-54
2022/05/31 05:25:08;;;;;;;;;;;;;;;16.73;96.16;98635.13;5030956;28;20031;-52
2022/05/31 05:27:35;;;;;;;;;;;;;;;17.40;93.31;98634.31;5033735;28;19979;-56
2022/05/31 05:32:44;;;;;;;;;;;;;;;17.60;93.97;98645.19;5033398;28;19995;-55
2022/05/31 05:35:09;;;;;;;;;;;;;;;17.55;95.30;98643.75;5033306;28;20382;-54
2022/05/31 05:37:35;;;;;;;;;;;;;;;17.80;92.54;98636.06;5034121;28;19924;-55
2022/05/31 05:40:00;;;;;;;;;;;;;;;17.88;94.29;98644.22;5030304;28;19921;-56
2022/05/31 05:42:25;;;;;;;;;;;;;;;17.55;98.83;98648.94;5032948;28;19921;-55
2022/05/31 05:44:51;;;;;;;;;;;;;;;17.29;100.00;98657.66;5032648;28;19921;-55
2022/05/31 05:47:16;;;;;;;;;;;;;;;18.09;99.77;98644.53;5032117;28;19921;-54
2022/05/31 05:49:41;;;;;;;;;;;;;;;18.24;99.11;98640.84;5029837;28;20016;-54
2022/05/31 05:52:07;;;;;;;;;;;;;;;18.34;99.36;98648.91;5029635;28;19921;-55
2022/05/31 05:54:32;;;;;;;;;;;;;;;18.35;96.01;98646.16;5013107;28;19921;-55
2022/05/31 05:56:58;;;;;;;;;;;;;;;18.15;98.48;98652.78;5032032;28;19917;-55
2022/05/31 05:59:23;;;;;;;;;;;;;;;18.15;100.00;98651.91;5035713;28;20263;-54
2022/05/31 06:01:50;;;;;;;;;;;;;;;17.51;100.00;98668.31;5033700;28;19921;-54
2022/05/31 06:04:16;;;;;;;;;;;;;;;18.15;100.00;98641.50;5031381;28;19916;-54
2022/05/31 06:06:41;;;;;;;;;;;;;;;18.64;98.22;98638.06;5030502;28;19940;-55
2022/05/31 06:09:10;;;;;;;;;;;;;;;18.69;94.89;98645.56;5033895;28;20336;-55
2022/05/31 06:11:40;;;;;;;;;;;;;;;18.69;94.98;98641.19;5020457;28;20469;-55
2022/05/31 06:14:10;;;;;;;;;;;;;;;18.65;94.13;98655.38;5034151;28;19920;-56
2022/05/31 06:16:37;;;;;;;;;;;;;;;18.69;92.13;98648.19;5035393;28;19969;-54
2022/05/31 06:19:16;;;;;;;;;;;;;;;19.21;89.26;98649.69;5034557;28;19945;-54
2022/05/31 06:49:08;;;;;;;;;;;;;;;19.63;98.12;98639.59;5035648;28;20660;-54
2022/05/31 06:57:02;;;;;;;;;;;;;;;19.10;100.00;98654.84;5036156;28;19925;-54
2022/05/31 06:59:28;;;;;;;;;;;;;;;18.70;100.00;98653.31;5018359;28;19917;-55
2022/05/31 07:01:53;;;;;;;;;;;;;;;18.73;100.00;98647.84;5033643;28;19971;-54
2022/05/31 07:04:18;;;;;;;;;;;;;;;18.84;100.00;98644.53;5032804;28;19916;-53
2022/05/31 07:06:44;;;;;;;;;;;;;;;18.38;100.00;98642.50;5034775;28;19917;-53
2022/05/31 07:09:09;;;;;;;;;;;;;;;17.96;100.00;98640.16;5032963;28;19917;-54
2022/05/31 07:11:34;;;;;;;;;;;;;;;17.94;100.00;98636.00;5033345;28;19931;-56
2022/05/31 07:14:01;;;;;;;;;;;;;;;19.40;100.00;98626.47;5034774;28;19913;-56
2022/05/31 07:16:26;;;;;;;;;;;;;;;18.30;100.00;98639.63;5036088;28;20286;-56
2022/05/31 07:18:52;;;;;;;;;;;;;;;18.48;100.00;98633.09;5035135;28;19917;-57
2022/05/31 07:21:17;;;;;;;;;;;;;;;19.00;100.00;98634.63;5041196;28;20805;-56
2022/05/31 07:23:42;;;;;;;;;;;;;;;19.00;100.00;98631.19;5036102;28;19924;-57
2022/05/31 07:26:08;;;;;;;;;;;;;;;18.48;100.00;98627.91;5039327;28;20348;-57
2022/05/31 07:28:33;;;;;;;;;;;;;;;19.61;100.00;98623.19;5033580;28;19928;-58
2022/05/31 07:30:58;;;;;;;;;;;;;;;19.58;100.00;98628.66;5033762;28;19927;-57
2022/05/31 07:33:24;;;;;;;;;;;;;;;19.68;100.00;98628.81;5033667;28;19917;-58
2022/05/31 07:35:49;;;;;;;;;;;;;;;19.55;100.00;98632.34;5032233;28;19922;-58
2022/05/31 07:38:15;;;;;;;;;;;;;;;19.23;100.00;98640.78;5036898;28;19917;-57
2022/05/31 07:40:40;;;;;;;;;;;;;;;19.65;100.00;98638.53;5030867;28;19924;-57
2022/05/31 07:43:05;;;;;;;;;;;;;;;20.20;100.00;98625.66;5035593;28;20014;-57
2022/05/31 07:45:31;;;;;;;;;;;;;;;19.52;100.00;98632.56;5037343;28;20000;-57
2022/05/31 07:47:56;;;;;;;;;;;;;;;19.49;100.00;98635.41;5033126;28;20032;-56
2022/05/31 07:50:21;;;;;;;;;;;;;;;19.04;100.00;98635.22;5032230;28;19917;-57
2022/05/31 07:52:47;;;;;;;;;;;;;;;18.65;100.00;98631.91;5033647;28;20534;-57
2022/05/31 07:55:12;;;;;;;;;;;;;;;18.76;100.00;98637.19;5035656;28;20003;-57
2022/05/31 08:00:22;;;;;;;;;;;;;;;18.87;100.00;98638.25;5032203;28;19986;-57
2022/05/31 08:02:47;;;;;;;;;;;;;;;18.60;100.00;98631.41;5033090;28;19928;-56
2022/05/31 08:05:13;;;;;;;;;;;;;;;18.76;100.00;98647.63;5032953;28;20240;-57
2022/05/31 08:07:39;;;;;;;;;;;;;;;17.93;100.00;98653.41;5031516;28;19921;-57
2022/05/31 08:10:04;;;;;;;;;;;;;;;18.28;100.00;98641.50;5033392;28;19921;-57
2022/05/31 08:12:30;;;;;;;;;;;;;;;17.45;100.00;98663.53;5033068;28;19959;-57
2022/05/31 08:14:55;;;;;;;;;;;;;;;16.83;100.00;98660.56;5034007;28;20020;-57
2022/05/31 08:17:21;;;;;;;;;;;;;;;17.34;100.00;98663.38;5035080;28;20485;-57
2022/05/31 08:19:46;;;;;;;;;;;;;;;17.44;100.00;98661.84;5034916;28;19920;-57
2022/05/31 08:22:11;;;;;;;;;;;;;;;16.77;100.00;98676.56;5033655;28;20289;-58
2022/05/31 08:24:37;;;;;;;;;;;;;;;15.98;100.00;98689.09;5034963;28;19917;-57
2022/05/31 08:27:02;;;;;;;;;;;;;;;15.91;100.00;98692.16;5034144;28;19924;-57
2022/05/31 08:29:28;;;;;;;;;;;;;;;15.86;100.00;98679.44;5019296;28;19917;-57
2022/05/31 08:31:54;;;;;;;;;;;;;;;16.70;100.00;98676.09;5027553;28;19917;-56
2022/05/31 08:34:19;;;;;;;;;;;;;;;16.30;100.00;98684.56;5033385;28;19917;-56
2022/05/31 08:36:44;;;;;;;;;;;;;;;16.09;100.00;98685.84;5029898;28;20409;-54
2022/05/31 08:39:10;;;;;;;;;;;;;;;15.84;100.00;98691.66;5032755;28;20035;-54
2022/05/31 08:41:45;;;;;;;;;;;;;;;16.31;100.00;98691.44;5026880;28;19926;-54
2022/05/31 08:44:28;;;;;;;;;;;;;;;16.66;100.00;98680.63;5030250;28;19925;-54
2022/05/31 08:46:53;;;;;;;;;;;;;;;17.04;100.00;98674.84;5032456;28;19917;-54
2022/05/31 08:51:52;;;;;;;;;;;;;;;16.95;100.00;98675.41;5031471;28;20805;-55
2022/05/31 08:52:10;;;;;;;;;;;;;;;17.07;100.00;98679.84;5031534;28;19921;-56
2022/05/31 08:57:24;;;;;;;;;;;;;;;18.73;100.00;98632.19;5029522;28;19924;-56
2022/05/31 08:59:50;;;;;;;;;;;;;;;18.32;100.00;98629.91;5015871;28;19917;-54
2022/05/31 09:02:36;;;;;;;;;;;;;;;18.64;100.00;98632.03;5011332;28;19916;-55
2022/05/31 09:05:03;;;;;;;;;;;;;;;18.80;100.00;98632.63;5031172;28;19942;-55
2022/05/31 09:07:31;;;;;;;;;;;;;;;19.97;100.00;98621.41;5014911;28;19917;-53
2022/05/31 09:10:00;;;;;;;;;;;;;;;19.73;100.00;98634.53;5011099;28;19921;-52
2022/05/31 09:12:25;;;;;;;;;;;;;;;19.27;100.00;98640.53;5031988;28;20004;-50
2022/05/31 09:15:02;;;;;;;;;;;;;;;19.77;100.00;98636.81;5027609;28;19921;-50
2022/05/31 09:17:45;;;;;;;;;;;;;;;19.68;100.00;98634.03;5012489;28;20573;-49
2022/05/31 09:20:10;;;;;;;;;;;;;;;20.78;100.00;98628.13;5031191;28;19940;-49
2022/05/31 09:22:35;;;;;;;;;;;;;;;20.17;100.00;98630.31;5027244;28;20374;-53
2022/05/31 09:25:02;;;;;;;;;;;;;;;20.19;100.00;98624.03;5011104;28;19916;-52
2022/05/31 09:27:34;;;;;;;;;;;;;;;19.92;100.00;98631.38;5029930;28;19917;-51
2022/05/31 09:30:09;;;;;;;;;;;;;;;19.07;100.00;98634.16;5008452;28;19917;-52
2022/05/31 09:32:47;;;;;;;;;;;;;;;19.31;100.00;98637.59;5012045;28;19917;-50
2022/05/31 09:35:12;;;;;;;;;;;;;;;19.94;100.00;98632.91;5025336;28;20313;-54
2022/05/31 09:37:44;;;;;;;;;;;;;;;19.73;100.00;98634.53;5028233;28;19975;-54
2022/05/31 09:40:17;;;;;;;;;;;;;;;20.48;100.00;98633.97;5026263;28;20669;-55
2022/05/31 09:42:44;;;;;;;;;;;;;;;19.38;100.00;98628.34;5029288;28;19921;-51
2022/05/31 09:45:11;;;;;;;;;;;;;;;19.26;100.00;98633.69;5003130;28;19916;-51
2022/05/31 09:47:36;;;;;;;;;;;;;;;19.98;100.00;98620.44;5024143;28;19939;-50
2022/05/31 09:50:02;;;;;;;;;;;;;;;19.91;100.00;98629.69;5022774;28;20390;-51
2022/05/31 09:52:35;;;;;;;;;;;;;;;19.05;100.00;98636.91;5026144;28;20469;-52
2022/05/31 09:57:54;;;;;;;;;;;;;;;19.85;100.00;98620.56;5025737;28;19924;-52
2022/05/31 10:00:20;;;;;;;;;;;;;;;19.82;100.00;98626.03;5026277;28;19917;-52
2022/05/31 10:02:56;;;;;;;;;;;;;;;19.67;100.00;98622.75;5024510;28;19917;-52
2022/05/31 10:05:21;;;;;;;;;;;;;;;19.27;100.00;98635.31;5024469;28;19963;-52
2022/05/31 10:07:47;;;;;;;;;;;;;;;19.51;100.00;98625.69;5025776;28;19917;-51
2022/05/31 10:10:15;;;;;;;;;;;;;;;19.91;100.00;98625.31;5007655;28;19920;-53
2022/05/31 10:12:48;;;;;;;;;;;;;;;19.21;100.00;98632.22;5027978;28;20011;-50
2022/05/31 10:15:18;;;;;;;;;;;;;;;19.72;100.00;98622.44;5023405;28;20387;-52
2022/05/31 10:17:43;;;;;;;;;;;;;;;20.79;100.00;98613.25;5008062;28;19918;-52
2022/05/31 10:20:14;;;;;;;;;;;;;;;20.71;100.00;98610.41;5005605;28;19996;-51
2022/05/31 10:22:52;;;;;;;;;;;;;;;21.29;100.00;98614.38;5022943;28;20381;-50
2022/05/31 10:25:21;;;;;;;;;;;;;;;21.39;98.79;98613.59;5032624;28;20282;-51
2022/05/31 10:27:47;;;;;;;;;;;;;;;20.14;100.00;98620.06;5025882;28;20945;-54
2022/05/31 10:30:20;;;;;;;;;;;;;;;20.86;100.00;98611.81;5025884;28;20017;-51
2022/05/31 10:32:53;;;;;;;;;;;;;;;20.89;98.88;98622.03;5010347;28;19928;-54
2022/05/31 10:35:19;;;;;;;;;;;;;;;21.23;100.00;98617.50;5013157;28;19917;-53
2022/05/31 10:38:04;;;;;;;;;;;;;;;20.64;100.00;98633.63;5032176;28;20687;-54
2022/05/31 10:40:48;;;;;;;;;;;;;;;19.89;100.00;98627.22;5027471;28;19921;-53
2022/05/31 10:43:16;;;;;;;;;;;;;;;19.79;100.00;98637.50;5029450;28;19987;-53
2022/05/31 10:45:42;;;;;;;;;;;;;;;18.83;100.00;98648.06;5028330;28;19940;-53
2022/05/31 10:48:07;;;;;;;;;;;;;;;17.70;100.00;98672.31;5030856;28;19917;-51
2022/05/31 10:50:44;;;;;;;;;;;;;;;17.45;100.00;98697.38;5033584;28;19917;-51
2022/05/31 10:53:13;;;;;;;;;;;;;;;17.01;100.00;98695.00;5013589;28;19917;-52
2022/05/31 10:55:41;;;;;;;;;;;;;;;17.25;100.00;98692.59;5029017;28;19921;-50
2022/05/31 10:58:07;;;;;;;;;;;;;;;17.07;100.00;98679.84;5009454;28;19928;-51
2022/05/31 11:00:37;;;;;;;;;;;;;;;17.27;100.00;98682.94;5029398;28;19916;-52
2022/05/31 11:03:09;;;;;;;;;;;;;;;16.99;100.00;98686.44;5008421;28;20091;-50
2022/05/31 11:05:37;;;;;;;;;;;;;;;17.38;100.00;98693.50;5027417;28;19923;-50
2022/05/31 11:13:51;;;;;;;;;;;;;;;18.27;100.00;98671.94;5028367;28;19924;-51
2022/05/31 11:16:37;;;;;;;;;;;;;;;18.02;100.00;98677.16;5028563;28;19917;-50
2022/05/31 11:19:04;;;;;;;;;;;;;;;17.96;100.00;98668.81;5027937;28;20346;-50
2022/05/31 11:21:42;;;;;;;;;;;;;;;18.50;100.00;98672.13;5030059;28;19971;-51
2022/05/31 11:24:31;;;;;;;;;;;;;;;19.13;100.00;98671.09;5008194;28;19979;-51
2022/05/31 11:27:08;;;;;;;;;;;;;;;19.36;100.00;98663.38;5004839;28;19917;-50
2022/05/31 11:29:40;;;;;;;;;;;;;;;19.61;100.00;98659.78;5029151;28;19917;-53
2022/05/31 11:32:40;;;;;;;;;;;;;;;20.18;100.00;98658.13;5029149;28;20453;-49
2022/05/31 11:35:13;;;;;;;;;;;;;;;21.55;100.00;98655.94;4947502;28;19918;-52
2022/05/31 11:37:53;;;;;;;;;;;;;;;21.10;100.00;98645.66;5015896;28;19928;-52
2022/05/31 11:40:25;;;;;;;;;;;;;;;21.25;96.42;98646.19;5012844;28;19980;-52
2022/05/31 11:43:05;;;;;;;;;;;;;;;21.12;90.35;98656.84;5028332;28;20350;-51
2022/05/31 11:45:48;;;;;;;;;;;;;;;21.06;88.07;98649.47;5029115;28;19917;-51
2022/05/31 11:48:22;;;;;;;;;;;;;;;21.58;86.37;98647.84;5012385;28;20751;-53
2022/05/31 11:50:56;;;;;;;;;;;;;;;21.22;88.90;98649.88;5011868;28;20572;-49
2022/05/31 11:53:34;;;;;;;;;;;;;;;22.00;83.72;98639.94;5025030;28;19993;-53
2022/05/31 11:56:02;;;;;;;;;;;;;;;22.08;85.93;98637.50;5028158;28;19928;-53
2022/05/31 11:58:36;;;;;;;;;;;;;;;22.98;83.42;98636.69;5029083;28;19928;-52
2022/05/31 12:01:14;;;;;;;;;;;;;;;21.40;86.58;98644.09;5010393;28;20004;-51
2022/05/31 12:03:47;;;;;;;;;;;;;;;21.85;89.71;98638.63;5024340;28;19967;-51
2022/05/31 12:06:28;;;;;;;;;;;;;;;21.02;94.63;98637.56;5011654;28;19916;-53
2022/05/31 12:08:53;;;;;;;;;;;;;;;19.74;97.35;98644.88;5031969;28;19960;-54
2022/05/31 12:11:27;;;;;;;;;;;;;;;22.23;92.47;98624.06;5029888;28;20047;-55
2022/05/31 12:13:52;;;;;;;;;;;;;;;21.81;86.80;98622.34;5033853;28;19921;-54
2022/05/31 12:16:17;;;;;;;;;;;;;;;22.41;88.36;98611.97;5030929;28;19926;-52
2022/05/31 12:18:52;;;;;;;;;;;;;;;22.87;88.84;98605.28;5011188;28;19916;-54
2022/05/31 12:21:36;;;;;;;;;;;;;;;21.79;89.19;98594.59;5033920;28;20356;-55
2022/05/31 12:24:15;;;;;;;;;;;;;;;21.64;92.29;98591.47;5032070;28;19960;-54
2022/05/31 12:26:47;;;;;;;;;;;;;;;20.99;88.78;98582.84;5016346;28;19927;-55
2022/05/31 12:29:21;;;;;;;;;;;;;;;22.03;87.07;98576.78;5035750;28;19928;-54
2022/05/31 12:31:46;;;;;;;;;;;;;;;21.24;85.99;98573.81;5034303;28;19987;-53
2022/05/31 12:34:11;;;;;;;;;;;;;;;21.97;84.51;98561.56;5034859;28;20019;-53
2022/05/31 12:36:56;;;;;;;;;;;;;;;21.41;87.07;98554.09;5035519;28;19912;-54
2022/05/31 12:39:23;;;;;;;;;;;;;;;20.98;87.26;98552.38;5036466;28;19928;-54
2022/05/31 12:41:50;;;;;;;;;;;;;;;21.10;90.87;98554.84;5034285;28;19972;-53
2022/05/31 12:44:15;;;;;;;;;;;;;;;21.98;87.37;98550.09;5030993;28;20339;-55
2022/05/31 12:46:45;;;;;;;;;;;;;;;22.23;81.05;98540.13;5031805;28;19917;-53
2022/05/31 12:49:21;;;;;;;;;;;;;;;23.39;82.18;98540.16;5033798;28;19963;-53
2022/05/31 12:55:12;;;;;;;;;;;;;;;22.78;79.47;98543.09;4956518;28;20527;-55
2022/05/31 13:00:33;;;;;;;;;;;;;;;24.59;72.47;98555.19;4999896;28;19923;-56
2022/05/31 13:02:58;;;;;;;;;;;;;;;23.77;72.93;98538.44;5034546;28;20362;-56
2022/05/31 13:05:28;;;;;;;;;;;;;;;24.18;74.51;98538.94;5034784;28;19963;-57
2022/05/31 13:08:09;;;;;;;;;;;;;;;24.51;72.43;98544.56;5032027;28;19916;-56
2022/05/31 13:10:36;;;;;;;;;;;;;;;22.77;73.15;98550.16;5032957;28;20035;-55
2022/05/31 13:21:30;;;;;;;;;;;;;;;26.38;61.22;98526.69;5032965;28;19924;-55
2022/05/31 13:23:56;;;;;;;;;;;;;;;25.58;62.90;98519.09;5012607;28;19917;-56
2022/05/31 13:26:23;;;;;;;;;;;;;;;26.83;56.51;98517.53;5031548;28;19917;-55
2022/05/31 13:28:59;;;;;;;;;;;;;;;27.89;47.12;98504.16;5014940;28;19967;-55
2022/05/31 13:31:25;;;;;;;;;;;;;;;25.92;58.30;98526.22;5032162;28;19921;-57
2022/05/31 13:34:04;;;;;;;;;;;;;;;27.29;59.39;98520.50;5031747;28;19924;-56
2022/05/31 13:36:30;;;;;;;;;;;;;;;26.68;60.05;98514.72;5030862;28;19916;-57
2022/05/31 13:38:56;;;;;;;;;;;;;;;25.15;59.93;98515.50;5031664;28;19917;-56
2022/05/31 13:41:21;;;;;;;;;;;;;;;25.88;55.52;98510.69;5014870;28;20408;-57
2022/05/31 13:43:47;;;;;;;;;;;;;;;27.43;47.71;98511.88;5028125;28;19912;-57
2022/05/31 13:46:47;;;;;;;;;;;;;;;27.83;46.25;98502.19;5032352;28;19916;-57
2022/05/31 13:49:18;;;;;;;;;;;;;;;27.41;52.16;98508.59;4992689;28;19960;-56
2022/05/31 13:51:50;;;;;;;;;;;;;;;27.57;50.25;98507.72;5031561;28;19921;-57
2022/05/31 13:54:17;;;;;;;;;;;;;;;27.91;42.47;98494.22;5030294;28;19921;-57